Terminal Aerodrome Forecast
Issued by NWS

Home | Current Version | Previous Version | Text Only | Print | Product List | Glossary On
Versions: 1 2 3 4 5 6 7 8 9 10 11 12 13 14 15 16 17 18 19 20 21 22 23 24 25 26 27 28
000
FTUS41 KOKX 280842 AAA
TAFSWF
TAF AMD
KSWF 280842Z 2809/2912 VRB04KT 6SM BR FEW030 FEW250
      TEMPO 2809/2811 3SM BR
     FM281500 30005KT P6SM SCT050 SCT250
     FM282300 VRB04KT P6SM FEW050
      AMD NOT SKED=

USA.gov is the U.S. government's official web portal to all federal, state and local government web resources and services.